sensor_id;sensor_type;location;lat;lon;timestamp;P1;durP1;ratioP1;P2;durP2;ratioP2
13112;SDS011;6622;49.752;6.100;2022-08-14T00:01:16;4.12;;;2.50;;
13112;SDS011;6622;49.752;6.100;2022-08-14T00:03:42;2.53;;;2.23;;
13112;SDS011;6622;49.752;6.100;2022-08-14T00:06:09;3.67;;;2.80;;
13112;SDS011;6622;49.752;6.100;2022-08-14T00:08:35;2.30;;;2.10;;
13112;SDS011;6622;49.752;6.100;2022-08-14T00:11:02;2.40;;;2.17;;
13112;SDS011;6622;49.752;6.100;2022-08-14T00:13:29;3.07;;;2.20;;
13112;SDS011;6622;49.752;6.100;2022-08-14T00:15:56;2.60;;;2.40;;
13112;SDS011;6622;49.752;6.100;2022-08-14T00:18:23;2.60;;;2.00;;
13112;SDS011;6622;49.752;6.100;2022-08-14T00:20:50;2.30;;;2.10;;
13112;SDS011;6622;49.752;6.100;2022-08-14T00:23:16;2.10;;;1.90;;
13112;SDS011;6622;49.752;6.100;2022-08-14T00:25:46;3.93;;;2.10;;
13112;SDS011;6622;49.752;6.100;2022-08-14T00:28:15;2.17;;;1.93;;
13112;SDS011;6622;49.752;6.100;2022-08-14T00:30:42;2.30;;;2.10;;
13112;SDS011;6622;49.752;6.100;2022-08-14T00:33:08;2.67;;;2.30;;
13112;SDS011;6622;49.752;6.100;2022-08-14T00:35:34;3.27;;;2.23;;
13112;SDS011;6622;49.752;6.100;2022-08-14T00:38:02;2.70;;;2.50;;
13112;SDS011;6622;49.752;6.100;2022-08-14T00:40:29;2.33;;;2.07;;
13112;SDS011;6622;49.752;6.100;2022-08-14T00:42:55;2.30;;;2.10;;
13112;SDS011;6622;49.752;6.100;2022-08-14T00:45:22;2.50;;;2.07;;
13112;SDS011;6622;49.752;6.100;2022-08-14T00:47:48;2.33;;;2.00;;
13112;SDS011;6622;49.752;6.100;2022-08-14T00:50:17;2.30;;;2.10;;
13112;SDS011;6622;49.752;6.100;2022-08-14T00:52:42;4.63;;;2.60;;
13112;SDS011;6622;49.752;6.100;2022-08-14T00:55:08;3.17;;;2.30;;
13112;SDS011;6622;49.752;6.100;2022-08-14T00:57:35;3.80;;;2.40;;
13112;SDS011;6622;49.752;6.100;2022-08-14T01:00:04;2.60;;;2.30;;
13112;SDS011;6622;49.752;6.100;2022-08-14T01:02:28;3.20;;;2.80;;
13112;SDS011;6622;49.752;6.100;2022-08-14T01:04:56;2.50;;;2.30;;
13112;SDS011;6622;49.752;6.100;2022-08-14T01:07:23;3.43;;;2.60;;
13112;SDS011;6622;49.752;6.100;2022-08-14T01:09:50;3.27;;;2.60;;
13112;SDS011;6622;49.752;6.100;2022-08-14T01:12:16;2.80;;;2.50;;
13112;SDS011;6622;49.752;6.100;2022-08-14T01:14:43;2.83;;;2.27;;
13112;SDS011;6622;49.752;6.100;2022-08-14T01:17:10;3.67;;;2.93;;
13112;SDS011;6622;49.752;6.100;2022-08-14T01:19:36;3.13;;;2.80;;
13112;SDS011;6622;49.752;6.100;2022-08-14T01:22:21;2.63;;;2.43;;
13112;SDS011;6622;49.752;6.100;2022-08-14T01:24:48;2.43;;;2.23;;
13112;SDS011;6622;49.752;6.100;2022-08-14T01:27:16;3.00;;;2.70;;
13112;SDS011;6622;49.752;6.100;2022-08-14T01:29:42;3.37;;;2.80;;
13112;SDS011;6622;49.752;6.100;2022-08-14T01:32:08;6.43;;;2.50;;
13112;SDS011;6622;49.752;6.100;2022-08-14T01:34:36;4.43;;;2.40;;
13112;SDS011;6622;49.752;6.100;2022-08-14T01:37:02;2.60;;;2.40;;
13112;SDS011;6622;49.752;6.100;2022-08-14T01:39:29;4.80;;;2.37;;
13112;SDS011;6622;49.752;6.100;2022-08-14T01:41:56;3.43;;;2.23;;
13112;SDS011;6622;49.752;6.100;2022-08-14T01:44:23;2.33;;;2.13;;
13112;SDS011;6622;49.752;6.100;2022-08-14T01:46:49;2.63;;;2.33;;
13112;SDS011;6622;49.752;6.100;2022-08-14T01:49:15;2.83;;;2.60;;
13112;SDS011;6622;49.752;6.100;2022-08-14T01:51:42;3.00;;;2.60;;
13112;SDS011;6622;49.752;6.100;2022-08-14T01:54:10;2.77;;;2.57;;
13112;SDS011;6622;49.752;6.100;2022-08-14T01:56:36;3.33;;;2.93;;
13112;SDS011;6622;49.752;6.100;2022-08-14T02:01:33;2.40;;;2.20;;
13112;SDS011;6622;49.752;6.100;2022-08-14T02:03:59;3.07;;;2.67;;
13112;SDS011;6622;49.752;6.100;2022-08-14T02:06:26;2.73;;;2.43;;
13112;SDS011;6622;49.752;6.100;2022-08-14T02:08:52;3.10;;;2.80;;
13112;SDS011;6622;49.752;6.100;2022-08-14T02:11:19;2.90;;;2.60;;
13112;SDS011;6622;49.752;6.100;2022-08-14T02:13:53;2.80;;;2.50;;
13112;SDS011;6622;49.752;6.100;2022-08-14T02:16:22;3.47;;;2.93;;
13112;SDS011;6622;49.752;6.100;2022-08-14T02:18:48;4.83;;;2.63;;
13112;SDS011;6622;49.752;6.100;2022-08-14T02:21:14;7.23;;;2.53;;
13112;SDS011;6622;49.752;6.100;2022-08-14T02:23:42;3.50;;;2.40;;
13112;SDS011;6622;49.752;6.100;2022-08-14T02:26:32;3.40;;;2.57;;
13112;SDS011;6622;49.752;6.100;2022-08-14T02:28:44;2.90;;;2.43;;
13112;SDS011;6622;49.752;6.100;2022-08-14T02:31:12;2.97;;;2.67;;
13112;SDS011;6622;49.752;6.100;2022-08-14T02:33:38;2.87;;;2.57;;
13112;SDS011;6622;49.752;6.100;2022-08-14T02:36:05;2.67;;;2.30;;
13112;SDS011;6622;49.752;6.100;2022-08-14T02:38:32;2.83;;;2.53;;
13112;SDS011;6622;49.752;6.100;2022-08-14T02:40:58;5.07;;;2.60;;
13112;SDS011;6622;49.752;6.100;2022-08-14T02:43:25;2.73;;;2.53;;
13112;SDS011;6622;49.752;6.100;2022-08-14T02:45:55;2.97;;;2.67;;
13112;SDS011;6622;49.752;6.100;2022-08-14T02:48:21;4.77;;;2.37;;
13112;SDS011;6622;49.752;6.100;2022-08-14T02:50:48;6.07;;;2.60;;
13112;SDS011;6622;49.752;6.100;2022-08-14T02:53:14;2.77;;;2.40;;
13112;SDS011;6622;49.752;6.100;2022-08-14T02:55:42;6.73;;;2.47;;
13112;SDS011;6622;49.752;6.100;2022-08-14T02:58:08;2.77;;;2.57;;
13112;SDS011;6622;49.752;6.100;2022-08-14T03:00:35;3.10;;;2.50;;
13112;SDS011;6622;49.752;6.100;2022-08-14T03:03:02;3.87;;;2.93;;
13112;SDS011;6622;49.752;6.100;2022-08-14T03:05:28;3.00;;;2.60;;
13112;SDS011;6622;49.752;6.100;2022-08-14T03:08:05;3.00;;;2.70;;
13112;SDS011;6622;49.752;6.100;2022-08-14T03:10:31;3.45;;;2.97;;
13112;SDS011;6622;49.752;6.100;2022-08-14T03:12:58;2.93;;;2.63;;
13112;SDS011;6622;49.752;6.100;2022-08-14T03:15:25;2.97;;;2.73;;
13112;SDS011;6622;49.752;6.100;2022-08-14T03:17:51;3.33;;;3.03;;
13112;SDS011;6622;49.752;6.100;2022-08-14T03:20:18;3.00;;;2.50;;
13112;SDS011;6622;49.752;6.100;2022-08-14T03:22:44;3.00;;;2.70;;
13112;SDS011;6622;49.752;6.100;2022-08-14T03:25:11;2.87;;;2.60;;
13112;SDS011;6622;49.752;6.100;2022-08-14T03:27:38;3.20;;;2.90;;
13112;SDS011;6622;49.752;6.100;2022-08-14T03:30:04;3.62;;;3.17;;
13112;SDS011;6622;49.752;6.100;2022-08-14T03:32:31;3.50;;;3.00;;
13112;SDS011;6622;49.752;6.100;2022-08-14T03:34:58;3.17;;;2.87;;
13112;SDS011;6622;49.752;6.100;2022-08-14T03:37:24;4.03;;;2.80;;
13112;SDS011;6622;49.752;6.100;2022-08-14T03:39:54;3.33;;;3.03;;
13112;SDS011;6622;49.752;6.100;2022-08-14T03:42:20;3.10;;;2.80;;
13112;SDS011;6622;49.752;6.100;2022-08-14T03:44:47;3.85;;;2.90;;
13112;SDS011;6622;49.752;6.100;2022-08-14T03:47:14;3.20;;;2.90;;
13112;SDS011;6622;49.752;6.100;2022-08-14T03:49:41;4.43;;;3.00;;
13112;SDS011;6622;49.752;6.100;2022-08-14T03:52:08;2.97;;;2.63;;
13112;SDS011;6622;49.752;6.100;2022-08-14T03:54:34;2.90;;;2.60;;
13112;SDS011;6622;49.752;6.100;2022-08-14T03:57:01;7.90;;;3.03;;
13112;SDS011;6622;49.752;6.100;2022-08-14T03:59:27;2.87;;;2.67;;
13112;SDS011;6622;49.752;6.100;2022-08-14T04:01:55;3.47;;;3.17;;
13112;SDS011;6622;49.752;6.100;2022-08-14T04:04:21;2.90;;;2.47;;
13112;SDS011;6622;49.752;6.100;2022-08-14T04:06:48;4.10;;;2.73;;
13112;SDS011;6622;49.752;6.100;2022-08-14T04:09:15;2.77;;;2.37;;
13112;SDS011;6622;49.752;6.100;2022-08-14T04:11:42;3.67;;;2.90;;
13112;SDS011;6622;49.752;6.100;2022-08-14T04:14:09;3.90;;;3.08;;
13112;SDS011;6622;49.752;6.100;2022-08-14T04:16:35;5.13;;;2.80;;
13112;SDS011;6622;49.752;6.100;2022-08-14T04:19:03;2.70;;;2.50;;
13112;SDS011;6622;49.752;6.100;2022-08-14T04:21:29;3.17;;;2.40;;
13112;SDS011;6622;49.752;6.100;2022-08-14T04:23:56;2.77;;;2.57;;
13112;SDS011;6622;49.752;6.100;2022-08-14T04:26:23;3.47;;;2.83;;
13112;SDS011;6622;49.752;6.100;2022-08-14T04:28:49;3.10;;;2.80;;
13112;SDS011;6622;49.752;6.100;2022-08-14T04:31:17;2.50;;;2.30;;
13112;SDS011;6622;49.752;6.100;2022-08-14T04:33:42;3.53;;;2.63;;
13112;SDS011;6622;49.752;6.100;2022-08-14T04:36:09;4.10;;;2.80;;
13112;SDS011;6622;49.752;6.100;2022-08-14T04:38:36;3.60;;;3.10;;
13112;SDS011;6622;49.752;6.100;2022-08-14T04:41:22;4.33;;;3.07;;
13112;SDS011;6622;49.752;6.100;2022-08-14T04:44:06;3.37;;;2.80;;
13112;SDS011;6622;49.752;6.100;2022-08-14T04:46:33;5.57;;;2.93;;
13112;SDS011;6622;49.752;6.100;2022-08-14T04:49:00;4.93;;;2.87;;
13112;SDS011;6622;49.752;6.100;2022-08-14T04:51:27;3.87;;;2.67;;
13112;SDS011;6622;49.752;6.100;2022-08-14T04:53:54;3.80;;;3.20;;
13112;SDS011;6622;49.752;6.100;2022-08-14T04:56:22;3.37;;;3.07;;
13112;SDS011;6622;49.752;6.100;2022-08-14T04:58:52;4.10;;;3.67;;
13112;SDS011;6622;49.752;6.100;2022-08-14T05:01:14;3.53;;;2.90;;
13112;SDS011;6622;49.752;6.100;2022-08-14T05:03:41;3.30;;;2.83;;
13112;SDS011;6622;49.752;6.100;2022-08-14T05:06:09;3.50;;;3.03;;
13112;SDS011;6622;49.752;6.100;2022-08-14T05:08:35;3.60;;;2.60;;
13112;SDS011;6622;49.752;6.100;2022-08-14T05:11:02;5.00;;;3.13;;
13112;SDS011;6622;49.752;6.100;2022-08-14T05:13:29;6.33;;;3.67;;
13112;SDS011;6622;49.752;6.100;2022-08-14T05:15:55;4.37;;;3.20;;
13112;SDS011;6622;49.752;6.100;2022-08-14T05:18:22;4.10;;;3.30;;
13112;SDS011;6622;49.752;6.100;2022-08-14T05:20:50;3.40;;;3.10;;
13112;SDS011;6622;49.752;6.100;2022-08-14T05:23:22;3.30;;;3.00;;
13112;SDS011;6622;49.752;6.100;2022-08-14T05:25:46;4.20;;;3.13;;
13112;SDS011;6622;49.752;6.100;2022-08-14T05:28:12;3.37;;;3.07;;
13112;SDS011;6622;49.752;6.100;2022-08-14T05:30:41;3.53;;;3.20;;
13112;SDS011;6622;49.752;6.100;2022-08-14T05:33:07;3.23;;;2.93;;
13112;SDS011;6622;49.752;6.100;2022-08-14T05:35:34;3.13;;;2.83;;
13112;SDS011;6622;49.752;6.100;2022-08-14T05:38:06;3.33;;;2.93;;
13112;SDS011;6622;49.752;6.100;2022-08-14T05:40:28;6.17;;;3.40;;
13112;SDS011;6622;49.752;6.100;2022-08-14T05:42:55;5.37;;;3.33;;
13112;SDS011;6622;49.752;6.100;2022-08-14T05:45:21;3.97;;;3.27;;
13112;SDS011;6622;49.752;6.100;2022-08-14T05:47:49;3.43;;;3.13;;
13112;SDS011;6622;49.752;6.100;2022-08-14T05:50:15;4.03;;;3.00;;
13112;SDS011;6622;49.752;6.100;2022-08-14T05:52:42;4.00;;;3.30;;
13112;SDS011;6622;49.752;6.100;2022-08-14T05:55:09;3.40;;;3.10;;
13112;SDS011;6622;49.752;6.100;2022-08-14T05:57:46;3.37;;;3.08;;
13112;SDS011;6622;49.752;6.100;2022-08-14T06:00:15;3.75;;;3.05;;
13112;SDS011;6622;49.752;6.100;2022-08-14T06:02:41;3.12;;;2.85;;
13112;SDS011;6622;49.752;6.100;2022-08-14T06:05:08;3.45;;;3.10;;
13112;SDS011;6622;49.752;6.100;2022-08-14T06:07:35;3.50;;;3.20;;
13112;SDS011;6622;49.752;6.100;2022-08-14T06:10:02;4.10;;;3.70;;
13112;SDS011;6622;49.752;6.100;2022-08-14T06:12:28;3.55;;;3.25;;
13112;SDS011;6622;49.752;6.100;2022-08-14T06:14:54;3.97;;;3.20;;
13112;SDS011;6622;49.752;6.100;2022-08-14T06:17:21;4.30;;;3.60;;
13112;SDS011;6622;49.752;6.100;2022-08-14T06:19:48;3.83;;;3.45;;
13112;SDS011;6622;49.752;6.100;2022-08-14T06:22:14;5.62;;;3.65;;
13112;SDS011;6622;49.752;6.100;2022-08-14T06:24:41;3.80;;;3.40;;
13112;SDS011;6622;49.752;6.100;2022-08-14T06:27:07;3.70;;;3.40;;
13112;SDS011;6622;49.752;6.100;2022-08-14T06:29:35;3.22;;;2.92;;
13112;SDS011;6622;49.752;6.100;2022-08-14T06:32:01;3.45;;;3.15;;
13112;SDS011;6622;49.752;6.100;2022-08-14T06:34:27;5.68;;;3.22;;
13112;SDS011;6622;49.752;6.100;2022-08-14T06:36:54;3.53;;;3.22;;
13112;SDS011;6622;49.752;6.100;2022-08-14T06:39:21;3.78;;;3.40;;
13112;SDS011;6622;49.752;6.100;2022-08-14T06:41:50;3.15;;;2.95;;
13112;SDS011;6622;49.752;6.100;2022-08-14T06:44:17;3.30;;;3.00;;
13112;SDS011;6622;49.752;6.100;2022-08-14T06:46:44;3.90;;;3.50;;
13112;SDS011;6622;49.752;6.100;2022-08-14T06:49:10;3.40;;;3.10;;
13112;SDS011;6622;49.752;6.100;2022-08-14T06:51:37;3.20;;;2.97;;
13112;SDS011;6622;49.752;6.100;2022-08-14T06:54:04;3.22;;;2.92;;
13112;SDS011;6622;49.752;6.100;2022-08-14T06:56:30;7.03;;;3.47;;
13112;SDS011;6622;49.752;6.100;2022-08-14T06:58:57;3.90;;;3.60;;
13112;SDS011;6622;49.752;6.100;2022-08-14T07:01:23;4.10;;;3.47;;
13112;SDS011;6622;49.752;6.100;2022-08-14T07:04:09;3.83;;;3.53;;
13112;SDS011;6622;49.752;6.100;2022-08-14T07:06:53;3.90;;;3.50;;
13112;SDS011;6622;49.752;6.100;2022-08-14T07:09:21;3.97;;;3.55;;
13112;SDS011;6622;49.752;6.100;2022-08-14T07:11:47;3.17;;;2.97;;
13112;SDS011;6622;49.752;6.100;2022-08-14T07:14:14;3.90;;;3.60;;
13112;SDS011;6622;49.752;6.100;2022-08-14T07:16:40;4.35;;;3.53;;
13112;SDS011;6622;49.752;6.100;2022-08-14T07:19:07;3.33;;;3.03;;
13112;SDS011;6622;49.752;6.100;2022-08-14T07:21:34;3.83;;;3.50;;
13112;SDS011;6622;49.752;6.100;2022-08-14T07:24:00;5.65;;;3.40;;
13112;SDS011;6622;49.752;6.100;2022-08-14T07:26:27;5.37;;;3.53;;
13112;SDS011;6622;49.752;6.100;2022-08-14T07:28:54;3.77;;;3.47;;
13112;SDS011;6622;49.752;6.100;2022-08-14T07:31:20;3.62;;;3.33;;
13112;SDS011;6622;49.752;6.100;2022-08-14T07:33:47;3.30;;;3.00;;
13112;SDS011;6622;49.752;6.100;2022-08-14T07:36:14;3.62;;;3.33;;
13112;SDS011;6622;49.752;6.100;2022-08-14T07:38:40;4.22;;;3.53;;
13112;SDS011;6622;49.752;6.100;2022-08-14T07:41:09;4.28;;;3.70;;
13112;SDS011;6622;49.752;6.100;2022-08-14T07:43:34;3.83;;;3.45;;
13112;SDS011;6622;49.752;6.100;2022-08-14T07:46:01;3.60;;;3.30;;
13112;SDS011;6622;49.752;6.100;2022-08-14T07:48:27;4.30;;;3.85;;
13112;SDS011;6622;49.752;6.100;2022-08-14T07:50:54;3.62;;;3.33;;
13112;SDS011;6622;49.752;6.100;2022-08-14T07:53:21;3.75;;;3.45;;
13112;SDS011;6622;49.752;6.100;2022-08-14T07:55:48;3.58;;;3.28;;
13112;SDS011;6622;49.752;6.100;2022-08-14T07:58:15;3.90;;;3.50;;
13112;SDS011;6622;49.752;6.100;2022-08-14T08:00:42;3.53;;;3.22;;
13112;SDS011;6622;49.752;6.100;2022-08-14T08:03:09;3.58;;;3.28;;
13112;SDS011;6622;49.752;6.100;2022-08-14T08:05:36;3.62;;;3.33;;
13112;SDS011;6622;49.752;6.100;2022-08-14T08:08:02;5.50;;;3.65;;
13112;SDS011;6622;49.752;6.100;2022-08-14T08:10:29;3.47;;;3.17;;
13112;SDS011;6622;49.752;6.100;2022-08-14T08:13:06;3.67;;;3.40;;
13112;SDS011;6622;49.752;6.100;2022-08-14T08:15:32;4.22;;;3.83;;
13112;SDS011;6622;49.752;6.100;2022-08-14T08:17:58;3.85;;;3.55;;
13112;SDS011;6622;49.752;6.100;2022-08-14T08:20:25;3.25;;;2.95;;
13112;SDS011;6622;49.752;6.100;2022-08-14T08:22:51;4.00;;;3.47;;
13112;SDS011;6622;49.752;6.100;2022-08-14T08:25:17;5.03;;;3.47;;
13112;SDS011;6622;49.752;6.100;2022-08-14T08:30:30;3.90;;;3.50;;
13112;SDS011;6622;49.752;6.100;2022-08-14T08:32:56;3.95;;;3.60;;
13112;SDS011;6622;49.752;6.100;2022-08-14T08:35:26;3.75;;;3.45;;
13112;SDS011;6622;49.752;6.100;2022-08-14T08:37:50;4.35;;;3.40;;
13112;SDS011;6622;49.752;6.100;2022-08-14T08:40:25;4.00;;;3.47;;
13112;SDS011;6622;49.752;6.100;2022-08-14T08:42:51;3.50;;;3.20;;
13112;SDS011;6622;49.752;6.100;2022-08-14T08:45:18;3.90;;;3.50;;
13112;SDS011;6622;49.752;6.100;2022-08-14T08:47:45;3.63;;;3.33;;
13112;SDS011;6622;49.752;6.100;2022-08-14T08:50:15;4.12;;;3.35;;
13112;SDS011;6622;49.752;6.100;2022-08-14T08:52:47;3.60;;;3.30;;
13112;SDS011;6622;49.752;6.100;2022-08-14T08:55:22;3.70;;;3.40;;
13112;SDS011;6622;49.752;6.100;2022-08-14T08:57:42;3.97;;;3.42;;
13112;SDS011;6622;49.752;6.100;2022-08-14T09:00:15;4.72;;;3.30;;
13112;SDS011;6622;49.752;6.100;2022-08-14T09:02:51;3.80;;;3.37;;
13112;SDS011;6622;49.752;6.100;2022-08-14T09:05:08;3.53;;;3.23;;
13112;SDS011;6622;49.752;6.100;2022-08-14T09:07:34;5.12;;;3.10;;
13112;SDS011;6622;49.752;6.100;2022-08-14T09:10:01;3.58;;;3.28;;
13112;SDS011;6622;49.752;6.100;2022-08-14T09:12:28;3.08;;;2.87;;
13112;SDS011;6622;49.752;6.100;2022-08-14T09:14:54;3.90;;;3.33;;
13112;SDS011;6622;49.752;6.100;2022-08-14T09:17:21;3.85;;;2.83;;
13112;SDS011;6622;49.752;6.100;2022-08-14T09:19:48;4.70;;;3.30;;
13112;SDS011;6622;49.752;6.100;2022-08-14T09:22:14;4.18;;;2.80;;
13112;SDS011;6622;49.752;6.100;2022-08-14T09:24:41;3.43;;;3.13;;
13112;SDS011;6622;49.752;6.100;2022-08-14T09:27:07;3.42;;;3.12;;
13112;SDS011;6622;49.752;6.100;2022-08-14T09:29:34;3.12;;;2.80;;
13112;SDS011;6622;49.752;6.100;2022-08-14T09:32:01;3.78;;;3.15;;
13112;SDS011;6622;49.752;6.100;2022-08-14T09:40:03;3.22;;;2.95;;
13112;SDS011;6622;49.752;6.100;2022-08-14T09:45:34;3.17;;;2.92;;
13112;SDS011;6622;49.752;6.100;2022-08-14T09:47:58;3.92;;;2.45;;
13112;SDS011;6622;49.752;6.100;2022-08-14T09:50:29;3.45;;;2.67;;
13112;SDS011;6622;49.752;6.100;2022-08-14T09:52:59;3.05;;;2.78;;
13112;SDS011;6622;49.752;6.100;2022-08-14T09:55:25;2.85;;;2.65;;
13112;SDS011;6622;49.752;6.100;2022-08-14T09:57:52;3.10;;;2.65;;
13112;SDS011;6622;49.752;6.100;2022-08-14T10:00:21;2.97;;;2.33;;
13112;SDS011;6622;49.752;6.100;2022-08-14T10:02:55;2.75;;;2.25;;
13112;SDS011;6622;49.752;6.100;2022-08-14T10:05:26;2.95;;;2.22;;
13112;SDS011;6622;49.752;6.100;2022-08-14T10:07:52;2.30;;;1.90;;
13112;SDS011;6622;49.752;6.100;2022-08-14T10:10:28;2.25;;;2.05;;
13112;SDS011;6622;49.752;6.100;2022-08-14T10:12:54;3.70;;;2.08;;
13112;SDS011;6622;49.752;6.100;2022-08-14T10:15:22;2.20;;;2.00;;
13112;SDS011;6622;49.752;6.100;2022-08-14T10:17:47;2.37;;;2.17;;
13112;SDS011;6622;49.752;6.100;2022-08-14T10:20:15;2.40;;;2.20;;
13112;SDS011;6622;49.752;6.100;2022-08-14T10:22:40;1.87;;;1.77;;
13112;SDS011;6622;49.752;6.100;2022-08-14T10:25:11;3.08;;;2.00;;
13112;SDS011;6622;49.752;6.100;2022-08-14T10:27:37;1.70;;;1.60;;
13112;SDS011;6622;49.752;6.100;2022-08-14T10:30:10;2.20;;;2.00;;
13112;SDS011;6622;49.752;6.100;2022-08-14T10:32:30;2.40;;;2.10;;
13112;SDS011;6622;49.752;6.100;2022-08-14T10:35:04;2.42;;;2.10;;
13112;SDS011;6622;49.752;6.100;2022-08-14T10:37:35;2.95;;;2.30;;
13112;SDS011;6622;49.752;6.100;2022-08-14T10:39:58;2.55;;;1.80;;
13112;SDS011;6622;49.752;6.100;2022-08-14T10:42:23;2.23;;;2.13;;
13112;SDS011;6622;49.752;6.100;2022-08-14T10:44:49;2.12;;;1.98;;
13112;SDS011;6622;49.752;6.100;2022-08-14T10:47:16;2.10;;;2.00;;
13112;SDS011;6622;49.752;6.100;2022-08-14T10:49:43;3.72;;;2.10;;
13112;SDS011;6622;49.752;6.100;2022-08-14T10:52:10;2.15;;;1.90;;
13112;SDS011;6622;49.752;6.100;2022-08-14T10:54:38;2.55;;;2.33;;
13112;SDS011;6622;49.752;6.100;2022-08-14T10:57:13;2.50;;;2.30;;
13112;SDS011;6622;49.752;6.100;2022-08-14T11:00:30;2.40;;;2.17;;
13112;SDS011;6622;49.752;6.100;2022-08-14T11:02:17;2.85;;;2.00;;
13112;SDS011;6622;49.752;6.100;2022-08-14T11:04:41;2.12;;;1.92;;
13112;SDS011;6622;49.752;6.100;2022-08-14T11:07:12;2.50;;;2.12;;
13112;SDS011;6622;49.752;6.100;2022-08-14T11:09:34;3.42;;;2.17;;
13112;SDS011;6622;49.752;6.100;2022-08-14T11:12:00;3.30;;;1.98;;
13112;SDS011;6622;49.752;6.100;2022-08-14T11:14:28;2.85;;;2.20;;
13112;SDS011;6622;49.752;6.100;2022-08-14T11:16:54;3.50;;;2.30;;
13112;SDS011;6622;49.752;6.100;2022-08-14T11:19:22;2.60;;;2.25;;
13112;SDS011;6622;49.752;6.100;2022-08-14T11:21:48;2.17;;;1.98;;
13112;SDS011;6622;49.752;6.100;2022-08-14T11:24:15;2.42;;;2.22;;
13112;SDS011;6622;49.752;6.100;2022-08-14T11:26:42;2.55;;;2.22;;
13112;SDS011;6622;49.752;6.100;2022-08-14T11:29:08;2.33;;;2.12;;
13112;SDS011;6622;49.752;6.100;2022-08-14T11:31:35;2.30;;;2.10;;
13112;SDS011;6622;49.752;6.100;2022-08-14T11:34:02;3.47;;;2.28;;
13112;SDS011;6622;49.752;6.100;2022-08-14T11:36:29;2.50;;;2.30;;
13112;SDS011;6622;49.752;6.100;2022-08-14T11:38:56;2.75;;;2.45;;
13112;SDS011;6622;49.752;6.100;2022-08-14T11:41:22;3.70;;;2.60;;
13112;SDS011;6622;49.752;6.100;2022-08-14T11:43:49;3.78;;;2.10;;
13112;SDS011;6622;49.752;6.100;2022-08-14T11:46:16;2.55;;;2.35;;
13112;SDS011;6622;49.752;6.100;2022-08-14T11:48:46;6.00;;;2.25;;
13112;SDS011;6622;49.752;6.100;2022-08-14T11:51:15;2.97;;;2.60;;
13112;SDS011;6622;49.752;6.100;2022-08-14T11:53:41;2.45;;;2.25;;
13112;SDS011;6622;49.752;6.100;2022-08-14T11:56:08;2.55;;;2.35;;
13112;SDS011;6622;49.752;6.100;2022-08-14T11:58:36;3.30;;;2.20;;
13112;SDS011;6622;49.752;6.100;2022-08-14T12:01:06;3.03;;;2.20;;
13112;SDS011;6622;49.752;6.100;2022-08-14T12:03:42;2.10;;;1.92;;
13112;SDS011;6622;49.752;6.100;2022-08-14T12:06:11;2.25;;;2.05;;
13112;SDS011;6622;49.752;6.100;2022-08-14T12:08:34;2.72;;;2.20;;
13112;SDS011;6622;49.752;6.100;2022-08-14T12:11:01;2.62;;;1.90;;
13112;SDS011;6622;49.752;6.100;2022-08-14T12:13:28;2.28;;;2.08;;
13112;SDS011;6622;49.752;6.100;2022-08-14T12:15:59;3.20;;;2.22;;
13112;SDS011;6622;49.752;6.100;2022-08-14T12:18:34;2.47;;;2.22;;
13112;SDS011;6622;49.752;6.100;2022-08-14T12:21:12;2.20;;;2.00;;
13112;SDS011;6622;49.752;6.100;2022-08-14T12:23:38;2.67;;;2.35;;
13112;SDS011;6622;49.752;6.100;2022-08-14T12:26:06;3.90;;;2.00;;
13112;SDS011;6622;49.752;6.100;2022-08-14T12:28:32;3.67;;;2.20;;
13112;SDS011;6622;49.752;6.100;2022-08-14T12:30:58;3.70;;;2.50;;
13112;SDS011;6622;49.752;6.100;2022-08-14T12:33:26;2.12;;;2.03;;
13112;SDS011;6622;49.752;6.100;2022-08-14T12:35:55;5.87;;;4.80;;
13112;SDS011;6622;49.752;6.100;2022-08-14T12:38:30;2.37;;;2.17;;
13112;SDS011;6622;49.752;6.100;2022-08-14T12:40:56;2.40;;;2.20;;
13112;SDS011;6622;49.752;6.100;2022-08-14T12:43:23;2.33;;;2.10;;
13112;SDS011;6622;49.752;6.100;2022-08-14T12:45:53;2.30;;;2.10;;
13112;SDS011;6622;49.752;6.100;2022-08-14T12:48:19;2.60;;;2.10;;
13112;SDS011;6622;49.752;6.100;2022-08-14T12:50:46;2.53;;;2.30;;
13112;SDS011;6622;49.752;6.100;2022-08-14T12:53:12;2.37;;;2.17;;
13112;SDS011;6622;49.752;6.100;2022-08-14T12:55:39;2.37;;;2.17;;
13112;SDS011;6622;49.752;6.100;2022-08-14T12:58:06;2.22;;;2.03;;
13112;SDS011;6622;49.752;6.100;2022-08-14T13:00:33;3.53;;;2.30;;
13112;SDS011;6622;49.752;6.100;2022-08-14T13:02:59;2.05;;;1.80;;
13112;SDS011;6622;49.752;6.100;2022-08-14T13:05:27;2.22;;;2.03;;
13112;SDS011;6622;49.752;6.100;2022-08-14T13:07:52;2.47;;;2.03;;
13112;SDS011;6622;49.752;6.100;2022-08-14T13:10:19;2.45;;;2.20;;
13112;SDS011;6622;49.752;6.100;2022-08-14T13:12:48;2.50;;;2.30;;
13112;SDS011;6622;49.752;6.100;2022-08-14T13:15:15;2.30;;;2.10;;
13112;SDS011;6622;49.752;6.100;2022-08-14T13:17:45;3.72;;;2.05;;
13112;SDS011;6622;49.752;6.100;2022-08-14T13:20:11;2.25;;;1.98;;
13112;SDS011;6622;49.752;6.100;2022-08-14T13:22:38;1.90;;;1.75;;
13112;SDS011;6622;49.752;6.100;2022-08-14T13:25:04;2.17;;;2.08;;
13112;SDS011;6622;49.752;6.100;2022-08-14T13:27:30;2.70;;;2.47;;
13112;SDS011;6622;49.752;6.100;2022-08-14T13:29:57;2.62;;;1.90;;
13112;SDS011;6622;49.752;6.100;2022-08-14T13:32:24;3.37;;;1.95;;
13112;SDS011;6622;49.752;6.100;2022-08-14T13:34:50;2.28;;;2.08;;
13112;SDS011;6622;49.752;6.100;2022-08-14T13:37:17;3.22;;;2.00;;
13112;SDS011;6622;49.752;6.100;2022-08-14T13:39:47;3.03;;;2.75;;
13112;SDS011;6622;49.752;6.100;2022-08-14T13:42:13;2.35;;;2.15;;
13112;SDS011;6622;49.752;6.100;2022-08-14T13:44:40;2.57;;;2.17;;
13112;SDS011;6622;49.752;6.100;2022-08-14T13:47:06;2.50;;;2.25;;
13112;SDS011;6622;49.752;6.100;2022-08-14T13:49:33;4.03;;;2.10;;
13112;SDS011;6622;49.752;6.100;2022-08-14T13:51:59;3.75;;;3.15;;
13112;SDS011;6622;49.752;6.100;2022-08-14T13:54:27;2.35;;;2.15;;
13112;SDS011;6622;49.752;6.100;2022-08-14T13:56:53;2.35;;;2.15;;
13112;SDS011;6622;49.752;6.100;2022-08-14T13:59:21;2.67;;;2.42;;
13112;SDS011;6622;49.752;6.100;2022-08-14T14:01:47;2.80;;;2.20;;
13112;SDS011;6622;49.752;6.100;2022-08-14T14:04:15;3.72;;;2.00;;
13112;SDS011;6622;49.752;6.100;2022-08-14T14:06:42;2.10;;;1.90;;
13112;SDS011;6622;49.752;6.100;2022-08-14T14:09:07;2.22;;;1.80;;
13112;SDS011;6622;49.752;6.100;2022-08-14T14:11:34;3.35;;;1.85;;
13112;SDS011;6622;49.752;6.100;2022-08-14T14:14:01;2.58;;;2.05;;
13112;SDS011;6622;49.752;6.100;2022-08-14T14:16:28;2.15;;;2.00;;
13112;SDS011;6622;49.752;6.100;2022-08-14T14:18:55;2.00;;;1.90;;
13112;SDS011;6622;49.752;6.100;2022-08-14T14:21:23;2.65;;;2.20;;
13112;SDS011;6622;49.752;6.100;2022-08-14T14:23:49;2.00;;;1.80;;
13112;SDS011;6622;49.752;6.100;2022-08-14T14:26:16;27.55;;;3.25;;
13112;SDS011;6622;49.752;6.100;2022-08-14T14:28:42;2.90;;;2.20;;
13112;SDS011;6622;49.752;6.100;2022-08-14T14:31:09;2.70;;;2.50;;
13112;SDS011;6622;49.752;6.100;2022-08-14T14:33:35;2.00;;;1.90;;
13112;SDS011;6622;49.752;6.100;2022-08-14T14:36:02;2.00;;;1.90;;
13112;SDS011;6622;49.752;6.100;2022-08-14T14:38:29;2.12;;;1.92;;
13112;SDS011;6622;49.752;6.100;2022-08-14T14:40:56;2.08;;;1.87;;
13112;SDS011;6622;49.752;6.100;2022-08-14T14:43:22;3.60;;;2.17;;
13112;SDS011;6622;49.752;6.100;2022-08-14T14:45:49;3.25;;;1.92;;
13112;SDS011;6622;49.752;6.100;2022-08-14T14:48:16;2.92;;;1.80;;
13112;SDS011;6622;49.752;6.100;2022-08-14T14:50:42;3.08;;;1.90;;
13112;SDS011;6622;49.752;6.100;2022-08-14T14:53:09;2.50;;;2.12;;
13112;SDS011;6622;49.752;6.100;2022-08-14T14:55:36;2.25;;;1.98;;
13112;SDS011;6622;49.752;6.100;2022-08-14T14:58:02;1.90;;;1.73;;
13112;SDS011;6622;49.752;6.100;2022-08-14T15:00:29;2.20;;;2.00;;
13112;SDS011;6622;49.752;6.100;2022-08-14T15:02:55;2.50;;;1.80;;
13112;SDS011;6622;49.752;6.100;2022-08-14T15:05:22;1.93;;;1.83;;
13112;SDS011;6622;49.752;6.100;2022-08-14T15:07:49;4.28;;;3.97;;
13112;SDS011;6622;49.752;6.100;2022-08-14T15:10:16;2.00;;;1.80;;
13112;SDS011;6622;49.752;6.100;2022-08-14T15:12:42;2.53;;;2.20;;
13112;SDS011;6622;49.752;6.100;2022-08-14T15:15:09;2.40;;;1.95;;